createdAt,value
2018-02-24T06:22:29.659Z,57.10
2018-02-24T06:25:01.551Z,57.30
2018-02-24T06:27:33.437Z,56.60
2018-02-24T06:30:05.339Z,56.00
2018-02-24T06:32:37.982Z,57.20
2018-02-24T06:35:09.867Z,57.20
2018-02-24T06:37:42.511Z,57.10
2018-02-24T06:40:14.723Z,57.00
2018-02-24T06:42:46.625Z,57.80
2018-02-24T06:45:18.522Z,58.40
2018-02-24T06:47:50.404Z,58.50
2018-02-24T06:50:22.287Z,59.10
2018-02-24T06:52:54.168Z,58.50
2018-02-24T06:55:26.133Z,58.60
2018-02-24T06:57:58.020Z,58.20
2018-02-24T07:00:29.921Z,57.50
2018-02-24T07:03:02.076Z,57.30
2018-02-24T07:05:33.968Z,56.30
2018-02-24T07:08:05.851Z,56.40
2018-02-24T07:10:37.737Z,56.10
2018-02-24T07:13:10.374Z,57.50
2018-02-24T07:15:42.263Z,57.50
2018-02-24T07:18:14.143Z,57.30
2018-02-24T07:20:46.812Z,56.50
2018-02-24T07:23:19.447Z,54.80
2018-02-24T07:25:51.342Z,54.80
2018-02-24T07:28:23.218Z,55.20
2018-02-24T07:30:55.869Z,53.30
2018-02-24T07:33:27.743Z,53.20
2018-02-24T07:35:59.635Z,53.30
2018-02-24T07:38:31.511Z,52.30
2018-02-24T07:41:03.400Z,52.30
2018-02-24T07:43:35.287Z,51.60
2018-02-24T07:46:07.166Z,50.90
2018-02-24T07:48:39.077Z,50.10
2018-02-24T07:51:11.004Z,49.90
2018-02-24T07:53:43.723Z,49.10
2018-02-24T07:56:15.680Z,49.00
2018-02-24T07:58:47.566Z,48.30
2018-02-24T08:01:19.496Z,45.80
2018-02-24T08:03:51.463Z,43.90
2018-02-24T08:06:23.359Z,41.80
2018-02-24T08:08:56.001Z,40.10
2018-02-24T08:11:28.655Z,41.00
2018-02-24T08:14:00.541Z,41.10
2018-02-24T08:16:32.432Z,40.60
2018-02-24T08:19:05.082Z,40.10
2018-02-24T08:21:36.975Z,40.00
2018-02-24T08:24:09.874Z,38.90
2018-02-24T08:26:41.766Z,38.90
2018-02-24T08:29:13.647Z,39.00
2018-02-24T08:31:45.530Z,39.00
2018-02-24T08:34:17.468Z,38.30
2018-02-24T08:36:52.210Z,38.50
2018-02-24T08:39:24.104Z,38.50
2018-02-24T08:41:56.769Z,38.40
2018-02-24T08:44:29.438Z,38.10
2018-02-24T08:47:02.190Z,38.30
2018-02-24T08:49:34.091Z,38.30
2018-02-24T08:52:06.738Z,38.00
2018-02-24T08:54:38.635Z,38.00
2018-02-24T08:57:11.371Z,38.20
2018-02-24T08:59:43.376Z,38.20
2018-02-24T09:02:16.040Z,38.40
2018-02-24T09:04:48.676Z,38.70
2018-02-24T09:07:20.653Z,38.70
2018-02-24T09:09:52.518Z,38.40
2018-02-24T09:12:24.406Z,38.40
2018-02-24T09:14:57.055Z,38.70
2018-02-24T09:17:28.958Z,38.70
2018-02-24T09:20:01.619Z,39.10
2018-02-24T09:22:34.287Z,38.60
2018-02-24T09:25:06.166Z,38.40
2018-02-24T09:27:38.822Z,39.40
2018-02-24T09:30:10.687Z,39.30
2018-02-24T09:32:42.579Z,39.70
2018-02-24T09:35:14.508Z,39.20
2018-02-24T09:37:46.488Z,39.30
2018-02-24T09:40:19.127Z,39.20
2018-02-24T09:42:51.014Z,39.10
2018-02-24T09:45:23.209Z,39.40
2018-02-24T09:47:55.093Z,38.90
2018-02-24T09:50:27.234Z,38.80
2018-02-24T09:52:59.116Z,38.90
2018-02-24T09:55:31.000Z,39.10
2018-02-24T09:58:02.888Z,38.80
2018-02-24T10:00:35.526Z,39.00
2018-02-24T10:03:07.661Z,39.60
2018-02-24T10:05:39.847Z,39.20
2018-02-24T10:08:11.736Z,39.30
2018-02-24T10:10:43.601Z,39.00
2018-02-24T10:13:15.493Z,39.00
2018-02-24T10:15:48.149Z,38.40
2018-02-24T10:18:20.035Z,38.30
2018-02-24T10:20:52.928Z,38.30
2018-02-24T10:23:24.830Z,38.40
2018-02-24T10:25:56.712Z,38.60
2018-02-24T10:28:28.596Z,38.70
2018-02-24T10:31:01.229Z,38.60
2018-02-24T10:33:33.116Z,38.60
2018-02-24T10:36:04.979Z,38.40
2018-02-24T10:38:37.643Z,38.50
2018-02-24T10:41:09.511Z,38.50
2018-02-24T10:43:41.706Z,38.10
2018-02-24T10:46:13.574Z,38.50
2018-02-24T10:48:45.698Z,38.20
2018-02-24T10:51:17.571Z,37.80
2018-02-24T10:53:50.335Z,37.60
2018-02-24T10:56:22.203Z,37.60
2018-02-24T10:58:54.399Z,37.50
2018-02-24T11:01:26.268Z,37.50
2018-02-24T11:03:58.423Z,37.20
2018-02-24T11:06:30.295Z,37.60
2018-02-24T11:09:02.195Z,37.30
2018-02-24T11:11:34.204Z,37.60
2018-02-24T11:14:06.847Z,37.10
2018-02-24T11:16:38.785Z,37.10
2018-02-24T11:19:10.675Z,37.30
2018-02-24T11:21:42.555Z,37.40
2018-02-24T11:24:15.208Z,37.20
2018-02-24T11:26:47.313Z,37.30
2018-02-24T11:29:19.195Z,36.50
2018-02-24T11:31:52.072Z,36.50
2018-02-24T11:34:23.958Z,36.50
2018-02-24T11:36:55.827Z,36.90
2018-02-24T11:39:28.039Z,36.20
2018-02-24T11:41:59.955Z,36.40
2018-02-24T11:44:31.911Z,36.60
2018-02-24T11:47:03.795Z,36.50
2018-02-24T11:49:35.991Z,36.50
2018-02-24T11:52:07.903Z,36.90
2018-02-24T11:54:39.867Z,36.80
2018-02-24T11:57:11.820Z,37.00
2018-02-24T11:59:43.692Z,37.30
2018-02-24T12:02:16.331Z,37.60
2018-02-24T12:04:48.332Z,37.50
2018-02-24T12:07:21.848Z,38.30
2018-02-24T12:09:54.095Z,38.30
2018-02-24T12:12:26.047Z,38.60
2018-02-24T12:14:57.942Z,39.10
2018-02-24T12:17:29.820Z,38.90
2018-02-24T12:20:02.467Z,40.00
2018-02-24T12:22:34.351Z,40.00
2018-02-24T12:25:07.251Z,41.00
2018-02-24T12:27:39.447Z,40.90
2018-02-24T12:30:11.324Z,41.00
2018-02-24T12:32:43.280Z,41.30
2018-02-24T12:35:15.256Z,41.50
2018-02-24T12:37:47.127Z,41.70
2018-02-24T12:40:19.014Z,42.20
2018-02-24T12:42:51.971Z,42.70
2018-02-24T12:45:23.856Z,42.70
2018-02-24T12:47:56.586Z,43.40
2018-02-24T12:50:28.551Z,43.30
2018-02-24T12:53:00.419Z,42.80
2018-02-24T12:55:32.371Z,42.50
2018-02-24T12:58:04.255Z,42.70
2018-02-24T13:00:36.194Z,42.40
2018-02-24T13:03:08.518Z,42.60
2018-02-24T13:05:40.421Z,42.70
2018-02-24T13:08:12.392Z,42.60
2018-02-24T13:10:44.283Z,42.80
2018-02-24T13:13:16.928Z,42.90
2018-02-24T13:15:48.839Z,42.80
2018-02-24T13:18:20.751Z,42.80
2018-02-24T13:20:52.648Z,42.80
2018-02-24T13:23:25.400Z,42.40
2018-02-24T13:25:57.352Z,42.30
2018-02-24T13:28:29.226Z,42.90
2018-02-24T13:31:01.112Z,43.00
2018-02-24T13:33:33.764Z,43.30
2018-02-24T13:36:05.647Z,43.20
2018-02-24T13:38:38.288Z,43.90
2018-02-24T13:41:10.248Z,43.90
2018-02-24T13:43:42.115Z,43.90
2018-02-24T13:46:14.068Z,44.50
2018-02-24T13:48:46.039Z,44.80
2018-02-24T13:51:17.923Z,44.90
2018-02-24T13:53:50.555Z,45.40
2018-02-24T13:56:22.436Z,45.00
2018-02-24T13:58:54.392Z,44.70
2018-02-24T14:01:26.306Z,45.00
2018-02-24T14:03:59.026Z,45.60
2018-02-24T14:06:31.000Z,45.50
2018-02-24T14:09:02.867Z,45.80
2018-02-24T14:11:34.767Z,46.00
2018-02-24T14:14:06.655Z,45.90
2018-02-24T14:16:38.535Z,46.00
2018-02-24T14:19:10.399Z,45.90
2018-02-24T14:21:42.626Z,46.00
2018-02-24T14:24:14.504Z,46.10
2018-02-24T14:26:46.383Z,46.80
2018-02-24T14:29:18.260Z,47.40
2018-02-24T14:31:50.146Z,47.60
2018-02-24T14:34:22.793Z,48.60
2018-02-24T14:36:54.677Z,48.40
2018-02-24T14:39:27.308Z,49.00
2018-02-24T14:41:59.194Z,48.90
2018-02-24T14:44:31.056Z,49.40
2018-02-24T14:47:02.938Z,49.90
2018-02-24T14:49:35.578Z,50.10
2018-02-24T14:52:07.549Z,50.00
2018-02-24T14:54:39.519Z,49.90
2018-02-24T14:57:11.412Z,50.10
2018-02-24T14:59:44.058Z,50.10
2018-02-24T15:02:15.940Z,50.10
2018-02-24T15:04:48.606Z,50.60
2018-02-24T15:07:21.252Z,50.80
2018-02-24T15:09:53.263Z,50.70
2018-02-24T15:12:25.156Z,50.90
2018-02-24T15:14:57.040Z,51.00
2018-02-24T15:17:28.963Z,50.70
2018-02-24T15:20:00.855Z,50.80
2018-02-24T15:22:32.758Z,51.10
2018-02-24T15:25:05.403Z,50.50
2018-02-24T15:27:37.288Z,50.50
2018-02-24T15:30:09.171Z,50.70
2018-02-24T15:32:41.338Z,50.50
2018-02-24T15:35:13.203Z,50.60
2018-02-24T15:37:45.099Z,50.50
2018-02-24T15:40:16.999Z,50.60
2018-02-24T15:42:49.656Z,50.80
2018-02-24T15:45:21.528Z,50.80
2018-02-24T15:47:53.411Z,50.60
2018-02-24T15:50:26.053Z,50.20
2018-02-24T15:52:57.932Z,50.20
2018-02-24T15:55:29.803Z,50.00
2018-02-24T15:58:02.458Z,49.40
2018-02-24T16:00:34.410Z,49.40
2018-02-24T16:03:06.311Z,49.10
2018-02-24T16:05:39.159Z,49.70
2018-02-24T16:08:11.042Z,49.70
2018-02-24T16:10:43.704Z,50.40
2018-02-24T16:13:15.595Z,50.30
2018-02-24T16:15:47.464Z,50.60
2018-02-24T16:18:19.357Z,50.90
2018-02-24T16:20:51.229Z,51.30
2018-02-24T16:23:23.542Z,51.50
2018-02-24T16:25:55.405Z,51.40
2018-02-24T16:28:27.282Z,51.40
2018-02-24T16:30:59.172Z,51.40
2018-02-24T16:33:31.149Z,52.00
2018-02-24T16:36:03.464Z,52.40
2018-02-24T16:38:35.356Z,52.10
2018-02-24T16:41:07.235Z,52.40
2018-02-24T16:43:39.132Z,52.90
2018-02-24T16:46:11.779Z,53.70
2018-02-24T16:48:43.681Z,53.60
2018-02-24T16:51:16.344Z,52.90
2018-02-24T16:53:49.038Z,52.30
2018-02-24T16:56:21.200Z,52.30
2018-02-24T16:58:53.104Z,52.20
2018-02-24T17:01:24.970Z,52.40
2018-02-24T17:03:56.858Z,52.20
2018-02-24T17:06:28.737Z,52.10
2018-02-24T17:09:00.628Z,51.50
2018-02-24T17:11:32.523Z,52.30
2018-02-24T17:14:04.415Z,52.10
2018-02-24T17:16:37.040Z,52.50
2018-02-24T17:19:08.928Z,52.50
2018-02-24T17:21:40.806Z,52.80
2018-02-24T17:24:13.448Z,53.00
2018-02-24T17:26:45.327Z,52.90
2018-02-24T17:29:17.216Z,53.30
2018-02-24T17:31:49.103Z,53.40
2018-02-24T17:34:21.045Z,53.50
2018-02-24T17:36:52.916Z,53.70
2018-02-24T17:39:24.818Z,54.30
2018-02-24T17:41:56.692Z,53.60
2018-02-24T17:44:28.607Z,53.00
2018-02-24T17:47:00.754Z,53.30
2018-02-24T17:49:32.635Z,53.40
2018-02-24T17:52:04.511Z,53.40
2018-02-24T17:54:36.394Z,53.30
2018-02-24T17:57:09.071Z,53.10
2018-02-24T17:59:41.268Z,53.10
2018-02-24T18:02:13.143Z,53.40
2018-02-24T18:04:45.028Z,53.40
2018-02-24T18:07:16.912Z,53.80
2018-02-24T18:09:48.800Z,53.90
2018-02-24T18:12:21.698Z,54.40
2018-02-24T18:14:53.587Z,54.30
2018-02-24T18:17:25.463Z,54.50
2018-02-24T18:19:57.579Z,54.50
2018-02-24T18:22:29.438Z,54.80
2018-02-24T18:25:01.319Z,54.80
2018-02-24T18:27:33.201Z,54.90
2018-02-24T18:30:05.081Z,55.20
2018-02-24T18:32:37.290Z,55.30
2018-02-24T18:35:09.168Z,55.30
2018-02-24T18:37:41.042Z,55.20
2018-02-24T18:40:13.172Z,55.30
2018-02-24T18:42:45.036Z,54.50
2018-02-24T18:45:16.920Z,54.00
2018-02-24T18:47:48.782Z,53.90
2018-02-24T18:50:20.667Z,53.40
2018-02-24T18:52:52.532Z,53.40
2018-02-24T18:55:24.423Z,53.20
2018-02-24T18:57:57.059Z,53.30
2018-02-24T19:00:29.275Z,53.20
2018-02-24T19:03:01.153Z,52.90
2018-02-24T19:05:33.044Z,53.00
2018-02-24T19:08:04.920Z,52.80
2018-02-24T19:10:36.802Z,53.20
2018-02-24T19:13:09.700Z,53.00
2018-02-24T19:15:41.595Z,53.00
2018-02-24T19:18:14.296Z,53.00
2018-02-24T19:20:46.184Z,52.70
2018-02-24T19:23:18.814Z,52.90
2018-02-24T19:25:50.702Z,52.80
2018-02-24T19:28:22.568Z,52.90
2018-02-24T19:30:54.447Z,52.70
2018-02-24T19:33:27.083Z,52.50
2018-02-24T19:35:58.988Z,52.50
2018-02-24T19:38:31.628Z,52.00
2018-02-24T19:41:03.510Z,52.00
2018-02-24T19:43:35.379Z,51.80
2018-02-24T19:46:08.029Z,51.30
2018-02-24T19:48:39.923Z,51.30
2018-02-24T19:51:12.580Z,50.70
2018-02-24T19:53:44.444Z,50.70
2018-02-24T19:56:16.316Z,51.00
2018-02-24T19:58:48.963Z,51.00
2018-02-24T20:01:20.839Z,50.90
2018-02-24T20:03:52.931Z,50.80
2018-02-24T20:06:24.822Z,50.90
2018-02-24T20:08:56.704Z,50.80
2018-02-24T20:11:28.591Z,50.70
2018-02-24T20:14:01.236Z,50.90
2018-02-24T20:16:33.355Z,50.90
2018-02-24T20:19:05.219Z,50.70
2018-02-24T20:21:37.110Z,50.40
2018-02-24T20:24:08.981Z,50.40
2018-02-24T20:26:40.883Z,50.20
2018-02-24T20:29:13.524Z,50.30
2018-02-24T20:31:46.172Z,50.20
2018-02-24T20:34:18.039Z,50.20
2018-02-24T20:36:50.281Z,50.30
2018-02-24T20:39:22.146Z,50.20
2018-02-24T20:41:54.044Z,50.50
2018-02-24T20:44:26.004Z,50.60
2018-02-24T20:46:57.975Z,50.50
2018-02-24T20:49:29.859Z,49.70
2018-02-24T20:52:01.744Z,49.00
2018-02-24T20:54:33.664Z,49.10
2018-02-24T20:57:05.615Z,48.80
2018-02-24T20:59:37.516Z,48.40
2018-02-24T21:02:10.183Z,48.50
